Shetucket River @ Willimantic, Ct

Shetucket River at Willimantic
 Total Drainage Area: 401 sq. miles 
 Drainage Area Controlled by Corps Dams: 159 sq. miles (40%) 
 Warning Flow/Stage: 3,920 cfs / 7.5 feet 
 Flood Flow/Stage: 8,860 cfs / 11.3 feet 
Date Time
(Eastern)
Stage
(ft)
Flow
(cfs)
CSM
(cfs / sq. mi.)
Jun-25 02:30 am 3.90 954 2.4
Jun-25 01:30 am 3.91 961 2.4
Jun-25 12:30 am 3.93 974 2.4
Jun-24 11:30 pm 3.94 981 2.5
Jun-24 10:30 pm 3.95 987 2.5
Jun-24 09:30 pm 3.97 1,001 2.5
Jun-24 08:30 pm 3.98 1,007 2.5
Jun-24 07:30 pm 3.99 1,013 2.5
Jun-24 06:30 pm 4.00 1,020 2.5
Jun-24 05:30 pm 4.02 1,033 2.6
Jun-24 04:30 pm 4.03 1,039 2.6
Jun-24 03:30 pm 4.04 1,045 2.6
Jun-24 02:30 pm 4.06 1,058 2.6
Jun-24 01:30 pm 4.07 1,065 2.7
Jun-24 12:30 pm 4.08 1,071 2.7
Jun-24 11:30 am 4.10 1,084 2.7
Jun-24 10:30 am 4.12 1,097 2.7
Jun-24 09:30 am 4.13 1,103 2.8
Jun-24 08:30 am 4.15 1,115 2.8
Jun-24 07:30 am 4.17 1,128 2.8
Jun-24 06:30 am 4.19 1,140 2.8
Jun-24 05:30 am 4.20 1,146 2.9
Jun-24 04:30 am 4.21 1,153 2.9
Jun-24 03:30 am 4.22 1,159 2.9
Jun-24 02:30 am 4.23 1,165 2.9
Report Generated June 25, 2024 06:46 am